Time;durP1;ratioP1;P1;durP2;ratioP2;P2;SDS_P1;SDS_P2;PMS_P1;PMS_P2;Temp;Humidity;BMP_temperature;BMP_pressure;BME280_temperature;BME280_humidity;BME280_pressure;Samples;Min_cycle;Max_cycle;Signal;HPM_P1;HPM_P2
2023/06/18 00:02:04;;;;;;;5.45;3.60;;;18.80;99.90;;;;;;5028993;28;20029;-45
2023/06/18 00:04:30;;;;;;;6.00;3.83;;;18.80;99.90;;;;;;5031126;28;20037;-46
2023/06/18 00:06:56;;;;;;;6.47;4.20;;;18.70;99.90;;;;;;5029457;28;20528;-45
2023/06/18 00:09:22;;;;;;;8.10;4.40;;;18.70;99.90;;;;;;5031988;28;20121;-46
2023/06/18 00:11:48;;;;;;;7.40;4.05;;;18.70;99.90;;;;;;5028234;28;20136;-49
2023/06/18 00:14:14;;;;;;;8.45;5.60;;;18.70;99.90;;;;;;5031018;28;20033;-47
2023/06/18 00:16:40;;;;;;;9.23;5.63;;;18.80;99.90;;;;;;5029017;28;20104;-48
2023/06/18 00:19:05;;;;;;;7.68;4.70;;;18.70;99.90;;;;;;5030004;28;20549;-50
2023/06/18 00:21:31;;;;;;;8.23;5.25;;;18.70;99.90;;;;;;5028813;28;20040;-45
2023/06/18 00:23:57;;;;;;;8.73;5.15;;;18.70;99.90;;;;;;5029147;28;20029;-47
2023/06/18 00:26:25;;;;;;;9.38;5.40;;;18.80;99.90;;;;;;5030585;28;20100;-44
2023/06/18 00:28:51;;;;;;;7.60;5.00;;;18.70;99.90;;;;;;5030250;28;20021;-44
2023/06/18 00:31:17;;;;;;;10.95;5.57;;;18.70;99.90;;;;;;5028549;28;20024;-44
2023/06/18 00:33:44;;;;;;;9.60;5.38;;;18.70;99.90;;;;;;5028009;28;20025;-44
2023/06/18 00:36:09;;;;;;;8.45;5.38;;;18.70;99.90;;;;;;5029094;28;20021;-51
2023/06/18 00:38:35;;;;;;;8.70;5.55;;;18.70;99.90;;;;;;5030308;28;20029;-51
2023/06/18 00:41:01;;;;;;;9.23;5.65;;;18.80;99.90;;;;;;5027271;28;20052;-47
2023/06/18 00:43:27;;;;;;;8.90;5.40;;;18.80;99.90;;;;;;5028815;28;20055;-50
2023/06/18 00:45:59;;;;;;;8.95;5.55;;;18.80;99.90;;;;;;5028046;28;20395;-45
2023/06/18 00:48:26;;;;;;;8.23;5.10;;;18.70;99.90;;;;;;5027339;28;20037;-51
2023/06/18 00:50:55;;;;;;;9.68;5.80;;;18.70;99.90;;;;;;5029619;28;20183;-46
2023/06/18 00:53:21;;;;;;;9.75;5.65;;;18.70;99.90;;;;;;5030260;28;20024;-47
2023/06/18 00:55:47;;;;;;;7.88;4.95;;;18.70;99.90;;;;;;5028752;28;20025;-47
2023/06/18 00:58:13;;;;;;;7.60;5.50;;;18.70;99.90;;;;;;5028757;28;20504;-50
2023/06/18 01:00:40;;;;;;;8.70;4.68;;;18.70;99.90;;;;;;5027964;28;20409;-49
2023/06/18 01:03:20;;;;;;;7.57;4.90;;;18.70;99.90;;;;;;5029280;28;20112;-45
2023/06/18 01:05:54;;;;;;;7.72;5.00;;;18.80;99.90;;;;;;5027488;28;20416;-47
2023/06/18 01:08:23;;;;;;;8.07;4.82;;;18.80;99.90;;;;;;5029655;28;20026;-47
2023/06/18 01:11:00;;;;;;;7.15;4.82;;;18.70;99.90;;;;;;5030225;28;20103;-45
2023/06/18 01:13:27;;;;;;;12.70;4.95;;;18.80;99.90;;;;;;5027901;28;20059;-48
2023/06/18 01:15:53;;;;;;;7.82;4.57;;;18.80;99.90;;;;;;5029677;28;20033;-47
2023/06/18 01:18:21;;;;;;;6.57;4.45;;;18.80;99.90;;;;;;5026673;28;20028;-47
2023/06/18 01:20:49;;;;;;;7.10;4.57;;;18.80;99.90;;;;;;5026312;28;20669;-47
2023/06/18 01:23:27;;;;;;;6.97;4.22;;;18.80;99.90;;;;;;5028621;28;20385;-51
2023/06/18 01:25:57;;;;;;;8.45;4.95;;;18.80;99.90;;;;;;5029442;28;20480;-48
2023/06/18 01:28:24;;;;;;;7.07;4.30;;;18.80;99.90;;;;;;5028469;28;20489;-53
2023/06/18 01:30:53;;;;;;;6.50;4.10;;;18.70;99.90;;;;;;5028018;28;20558;-51
2023/06/18 01:33:21;;;;;;;6.35;4.22;;;18.70;99.90;;;;;;5029759;28;20025;-45
2023/06/18 01:35:47;;;;;;;6.50;3.95;;;18.60;99.90;;;;;;5028155;28;20097;-49
2023/06/18 01:38:16;;;;;;;8.52;4.43;;;18.60;99.90;;;;;;5027662;28;20037;-47
2023/06/18 01:40:45;;;;;;;8.32;4.80;;;18.60;99.90;;;;;;5027557;28;20072;-46
2023/06/18 01:43:18;;;;;;;7.65;4.75;;;18.60;99.90;;;;;;5028564;28;20028;-48
2023/06/18 01:45:52;;;;;;;6.65;4.38;;;18.60;99.90;;;;;;5028513;28;20061;-51
2023/06/18 01:48:21;;;;;;;6.78;4.35;;;18.60;99.90;;;;;;5028434;28;20064;-48
2023/06/18 01:50:48;;;;;;;7.78;4.50;;;18.50;99.90;;;;;;5032049;28;20476;-45
2023/06/18 01:53:17;;;;;;;6.82;4.30;;;18.50;99.90;;;;;;5032203;28;20026;-47
2023/06/18 01:55:45;;;;;;;6.30;4.07;;;18.60;99.90;;;;;;5030960;28;20116;-44
2023/06/18 01:58:16;;;;;;;7.07;3.97;;;18.60;99.90;;;;;;5032440;28;20041;-45
2023/06/18 02:00:42;;;;;;;6.60;4.15;;;18.60;99.90;;;;;;5032647;28;20046;-48
2023/06/18 02:03:08;;;;;;;7.10;4.45;;;18.60;99.90;;;;;;5030333;28;20504;-48
2023/06/18 02:05:34;;;;;;;6.50;4.30;;;18.60;99.90;;;;;;5032749;28;20079;-45
2023/06/18 02:08:00;;;;;;;8.25;4.25;;;18.60;99.90;;;;;;5030355;28;20592;-50
2023/06/18 02:10:26;;;;;;;8.02;4.90;;;18.60;99.90;;;;;;5031231;28;20034;-52
2023/06/18 02:12:51;;;;;;;7.55;4.55;;;18.60;99.90;;;;;;5029731;28;20025;-49
2023/06/18 02:15:17;;;;;;;6.65;4.68;;;18.50;99.90;;;;;;5032549;28;20040;-51
2023/06/18 02:17:43;;;;;;;6.65;4.22;;;18.50;99.90;;;;;;5033103;28;20056;-47
2023/06/18 02:20:10;;;;;;;7.40;4.50;;;18.50;99.90;;;;;;5029913;28;20112;-49
2023/06/18 02:22:37;;;;;;;7.57;4.35;;;18.50;99.90;;;;;;5031269;28;20030;-47
2023/06/18 02:25:03;;;;;;;9.40;5.38;;;18.40;99.90;;;;;;5028879;28;20041;-46
2023/06/18 02:27:29;;;;;;;7.10;4.30;;;18.50;99.90;;;;;;5032104;28;20024;-48
2023/06/18 02:29:54;;;;;;;7.80;4.43;;;18.40;99.90;;;;;;5031317;28;20021;-45
2023/06/18 02:32:20;;;;;;;7.00;4.32;;;18.40;99.90;;;;;;5030734;28;20017;-48
2023/06/18 02:34:46;;;;;;;7.60;4.43;;;18.50;99.90;;;;;;5031802;28;20055;-47
2023/06/18 02:37:11;;;;;;;5.93;3.90;;;18.50;99.90;;;;;;5031454;28;20018;-50
2023/06/18 02:39:37;;;;;;;6.22;4.18;;;18.50;99.90;;;;;;5032310;28;20427;-48
2023/06/18 02:42:03;;;;;;;8.43;4.65;;;18.40;99.90;;;;;;5033812;28;20024;-56
2023/06/18 02:44:28;;;;;;;7.50;4.50;;;18.40;99.90;;;;;;5030695;28;20485;-46
2023/06/18 02:46:55;;;;;;;7.70;4.43;;;18.30;99.90;;;;;;5031191;28;20055;-47
2023/06/18 02:49:21;;;;;;;7.90;4.63;;;18.30;99.90;;;;;;5033608;28;20074;-50
2023/06/18 02:51:47;;;;;;;7.03;4.50;;;18.40;99.90;;;;;;5031198;28;20420;-45
2023/06/18 02:54:13;;;;;;;10.68;5.63;;;18.40;99.90;;;;;;5029942;28;20492;-55
2023/06/18 02:56:39;;;;;;;7.22;5.05;;;18.30;99.90;;;;;;5032948;28;20033;-50
2023/06/18 02:59:04;;;;;;;7.00;4.82;;;18.40;99.90;;;;;;5032486;28;20025;-54
2023/06/18 03:01:31;;;;;;;6.95;5.13;;;18.40;99.90;;;;;;5012630;28;20100;-46
2023/06/18 03:03:58;;;;;;;7.30;4.88;;;18.30;99.90;;;;;;5029169;28;20041;-49
2023/06/18 03:06:24;;;;;;;7.15;4.35;;;18.30;99.90;;;;;;5031458;28;20025;-54
2023/06/18 03:08:50;;;;;;;8.82;5.18;;;18.30;99.90;;;;;;5030997;28;20021;-54
2023/06/18 03:11:15;;;;;;;9.95;4.88;;;18.30;99.90;;;;;;5030974;28;20022;-52
2023/06/18 03:13:41;;;;;;;9.82;5.45;;;18.30;99.90;;;;;;5032196;28;20018;-44
2023/06/18 03:16:07;;;;;;;8.38;5.35;;;18.30;99.90;;;;;;5030288;28;20543;-44
2023/06/18 03:18:33;;;;;;;6.95;4.57;;;18.30;99.90;;;;;;5029616;28;20028;-44
2023/06/18 03:20:58;;;;;;;8.10;4.57;;;18.30;99.90;;;;;;5031470;28;20102;-45
2023/06/18 03:23:24;;;;;;;8.02;5.30;;;18.20;99.90;;;;;;5031818;28;20030;-44
2023/06/18 03:25:50;;;;;;;7.15;4.60;;;18.30;99.90;;;;;;5011094;28;20033;-46
2023/06/18 03:28:17;;;;;;;6.95;4.93;;;18.20;99.90;;;;;;5030559;28;20037;-45
2023/06/18 03:30:42;;;;;;;7.57;4.80;;;18.20;99.90;;;;;;5030970;28;20022;-52
2023/06/18 03:33:08;;;;;;;9.32;4.72;;;18.20;99.90;;;;;;5031458;28;20096;-48
2023/06/18 03:35:36;;;;;;;9.60;4.50;;;18.20;99.90;;;;;;5031209;28;20038;-53
2023/06/18 03:38:02;;;;;;;9.65;4.30;;;18.20;99.90;;;;;;5032400;28;20021;-50
2023/06/18 03:40:28;;;;;;;7.55;4.40;;;18.20;99.90;;;;;;5031377;28;20029;-51
2023/06/18 03:42:54;;;;;;;6.63;4.43;;;18.20;99.90;;;;;;5027546;28;20538;-52
2023/06/18 03:45:20;;;;;;;8.63;4.72;;;18.20;99.90;;;;;;5030968;28;20037;-44
2023/06/18 03:47:46;;;;;;;6.90;4.32;;;18.20;99.90;;;;;;5032213;28;20384;-44
2023/06/18 03:50:12;;;;;;;7.97;4.45;;;18.20;99.90;;;;;;5032427;28;20029;-45
2023/06/18 03:52:37;;;;;;;9.32;4.88;;;18.20;99.90;;;;;;5032276;28;20028;-47
2023/06/18 03:55:04;;;;;;;10.32;5.10;;;18.20;99.90;;;;;;5032470;28;20468;-51
2023/06/18 03:57:30;;;;;;;9.48;5.07;;;18.20;99.90;;;;;;5032111;28;20061;-50
2023/06/18 03:59:56;;;;;;;8.35;4.78;;;18.30;99.90;;;;;;5032378;28;20029;-48
2023/06/18 04:02:22;;;;;;;7.18;4.57;;;18.20;99.90;;;;;;5032209;28;20071;-46
2023/06/18 04:04:47;;;;;;;7.32;4.25;;;18.20;99.90;;;;;;5032156;28;20033;-51
2023/06/18 04:07:13;;;;;;;8.85;4.18;;;18.20;99.90;;;;;;5032139;28;20028;-45
2023/06/18 04:09:39;;;;;;;10.27;5.10;;;18.20;99.90;;;;;;5031987;28;20387;-52
2023/06/18 04:12:06;;;;;;;9.23;4.78;;;18.10;99.90;;;;;;5031226;28;20051;-50
2023/06/18 04:14:34;;;;;;;7.93;5.03;;;18.10;99.90;;;;;;5031637;28;20040;-53
2023/06/18 04:17:00;;;;;;;8.30;5.40;;;18.20;99.90;;;;;;5032109;28;20431;-45
2023/06/18 04:19:26;;;;;;;8.43;5.65;;;18.20;99.90;;;;;;5031736;28;20033;-49
2023/06/18 04:21:51;;;;;;;10.60;5.32;;;18.20;99.90;;;;;;5031983;28;20021;-52
2023/06/18 04:24:17;;;;;;;8.45;5.53;;;18.10;99.90;;;;;;5031917;28;20041;-47
2023/06/18 04:26:43;;;;;;;9.50;5.78;;;18.20;99.90;;;;;;5031682;28;20448;-44
2023/06/18 04:29:08;;;;;;;9.50;6.38;;;18.20;99.90;;;;;;5031761;28;20029;-48
2023/06/18 04:31:35;;;;;;;10.93;5.82;;;18.20;99.90;;;;;;5029562;28;20095;-52
2023/06/18 04:34:01;;;;;;;10.80;6.53;;;18.20;99.90;;;;;;5012593;28;20032;-47
2023/06/18 04:36:26;;;;;;;10.07;6.32;;;18.20;99.90;;;;;;5013131;28;20029;-53
2023/06/18 04:38:52;;;;;;;10.07;6.38;;;18.30;99.90;;;;;;5012519;28;20025;-51
2023/06/18 04:41:18;;;;;;;8.27;5.43;;;18.30;99.90;;;;;;5012372;28;20034;-47
2023/06/18 04:43:43;;;;;;;10.77;6.55;;;18.30;99.90;;;;;;5021839;28;20034;-45
2023/06/18 04:46:09;;;;;;;13.80;6.45;;;18.30;99.90;;;;;;5012306;28;20045;-44
2023/06/18 04:48:35;;;;;;;9.70;5.95;;;18.40;99.90;;;;;;5012667;28;20058;-44
2023/06/18 04:51:00;;;;;;;11.68;6.43;;;18.40;99.90;;;;;;5013060;28;20120;-44
2023/06/18 04:53:26;;;;;;;8.80;5.68;;;18.40;99.90;;;;;;5030912;28;20025;-44
2023/06/18 04:55:52;;;;;;;9.27;5.90;;;18.40;99.90;;;;;;5031310;28;20506;-48
2023/06/18 04:58:19;;;;;;;9.77;6.25;;;18.50;99.90;;;;;;5030869;28;20049;-50
2023/06/18 05:00:46;;;;;;;10.50;6.55;;;18.50;99.90;;;;;;5031093;28;20017;-50
2023/06/18 05:03:12;;;;;;;11.95;6.35;;;18.60;99.90;;;;;;5031063;28;20096;-53
2023/06/18 05:05:37;;;;;;;10.23;6.28;;;18.60;99.90;;;;;;5030921;28;20037;-54
2023/06/18 05:08:04;;;;;;;10.95;6.10;;;18.70;99.90;;;;;;5031180;28;20056;-53
2023/06/18 05:10:30;;;;;;;10.90;6.38;;;18.70;99.90;;;;;;5031166;28;20029;-47
2023/06/18 05:12:55;;;;;;;9.15;5.57;;;18.80;99.90;;;;;;5030814;28;20481;-47
2023/06/18 05:15:21;;;;;;;9.63;5.60;;;18.80;99.90;;;;;;5031477;28;20036;-49
2023/06/18 05:17:46;;;;;;;8.93;5.47;;;18.90;99.90;;;;;;5030777;28;20511;-45
2023/06/18 05:20:12;;;;;;;11.27;6.38;;;18.90;99.90;;;;;;5031049;28;20479;-44
2023/06/18 05:22:40;;;;;;;8.57;5.60;;;18.90;99.90;;;;;;5030847;28;20121;-50
2023/06/18 05:25:06;;;;;;;8.73;5.72;;;19.00;99.90;;;;;;5030515;28;20087;-47
2023/06/18 05:27:31;;;;;;;10.02;6.18;;;19.00;99.90;;;;;;5030581;28;20100;-45
2023/06/18 05:29:57;;;;;;;11.63;6.32;;;19.10;99.90;;;;;;5016959;28;20104;-45
2023/06/18 05:32:22;;;;;;;11.38;6.00;;;19.10;99.90;;;;;;5030610;28;20094;-48
2023/06/18 05:34:48;;;;;;;9.75;5.97;;;19.10;99.90;;;;;;5030440;28;20026;-51
2023/06/18 05:37:14;;;;;;;10.23;6.07;;;19.20;99.90;;;;;;5012942;28;20116;-53
2023/06/18 05:39:40;;;;;;;9.13;6.03;;;19.20;99.90;;;;;;5012715;28;20420;-44
2023/06/18 05:42:06;;;;;;;8.95;5.85;;;19.30;99.90;;;;;;5030306;28;20017;-51
2023/06/18 05:44:32;;;;;;;7.78;5.30;;;19.30;99.90;;;;;;5030380;28;20060;-52
2023/06/18 05:46:57;;;;;;;9.75;5.93;;;19.40;99.90;;;;;;5030416;28;20402;-49
2023/06/18 05:49:23;;;;;;;11.55;6.18;;;19.50;99.90;;;;;;5030521;28;20503;-52
2023/06/18 05:51:49;;;;;;;10.20;5.57;;;19.50;99.90;;;;;;5030405;28;20380;-44
2023/06/18 05:54:14;;;;;;;7.80;5.22;;;19.50;99.90;;;;;;5030527;28;20021;-48
2023/06/18 05:56:40;;;;;;;8.55;5.32;;;19.60;99.90;;;;;;5030446;28;20658;-55
2023/06/18 05:59:05;;;;;;;10.43;5.95;;;19.60;99.90;;;;;;5030471;28;20037;-50
2023/06/18 06:01:33;;;;;;;7.47;5.25;;;19.70;99.90;;;;;;5030438;28;20112;-44
2023/06/18 06:03:59;;;;;;;9.35;5.95;;;19.80;99.90;;;;;;5030574;28;20042;-52
2023/06/18 06:06:25;;;;;;;8.73;5.47;;;19.80;99.90;;;;;;5030325;28;20099;-45
2023/06/18 06:08:52;;;;;;;8.70;5.30;;;19.90;99.90;;;;;;5030576;28;20453;-50
2023/06/18 06:11:18;;;;;;;10.70;6.28;;;19.80;99.90;;;;;;5030393;28;20385;-47
2023/06/18 06:13:43;;;;;;;8.05;5.18;;;19.90;99.90;;;;;;5029923;28;20033;-49
2023/06/18 06:16:09;;;;;;;8.18;5.43;;;20.00;99.90;;;;;;5030418;28;20025;-47
2023/06/18 06:18:35;;;;;;;8.70;5.10;;;20.10;99.90;;;;;;5030280;28;20473;-43
2023/06/18 06:21:00;;;;;;;11.20;4.93;;;20.30;99.90;;;;;;5030182;28;20029;-50
2023/06/18 06:23:26;;;;;;;7.32;4.82;;;20.40;99.90;;;;;;5030078;28;20092;-47
2023/06/18 06:25:51;;;;;;;8.13;5.30;;;20.40;99.90;;;;;;5030091;28;20035;-49
2023/06/18 06:28:17;;;;;;;8.38;5.63;;;20.60;99.90;;;;;;5030209;28;20361;-49
2023/06/18 06:30:43;;;;;;;7.13;4.72;;;20.80;99.90;;;;;;5030115;28;20030;-44
2023/06/18 06:33:08;;;;;;;11.40;5.45;;;21.00;99.90;;;;;;5030061;28;20108;-49
2023/06/18 06:35:34;;;;;;;7.63;4.50;;;21.20;99.90;;;;;;5030971;28;20029;-47
2023/06/18 06:38:00;;;;;;;7.78;4.80;;;21.40;99.90;;;;;;5033845;28;20125;-44
2023/06/18 06:40:25;;;;;;;7.53;4.78;;;21.70;99.90;;;;;;5033937;28;20612;-47
2023/06/18 06:42:51;;;;;;;8.82;4.70;;;22.00;99.90;;;;;;5033323;28;20053;-44
2023/06/18 06:45:16;;;;;;;10.00;4.78;;;22.20;99.90;;;;;;5033691;28;20153;-47
2023/06/18 06:47:42;;;;;;;9.52;5.03;;;22.60;99.90;;;;;;5033687;28;20025;-44
2023/06/18 06:50:08;;;;;;;8.43;4.95;;;22.90;99.90;;;;;;5016094;28;20025;-47
2023/06/18 06:52:34;;;;;;;10.10;4.85;;;23.00;99.90;;;;;;5033425;28;20026;-49
2023/06/18 06:54:59;;;;;;;7.95;5.00;;;23.00;99.90;;;;;;5033525;28;20115;-43
2023/06/18 06:57:25;;;;;;;8.48;4.90;;;23.30;99.90;;;;;;5033241;28;20538;-54
2023/06/18 06:59:51;;;;;;;6.88;4.85;;;23.30;99.90;;;;;;5015608;28;20401;-46
2023/06/18 07:02:16;;;;;;;8.60;5.00;;;23.20;99.90;;;;;;5033210;28;20082;-46
2023/06/18 07:04:46;;;;;;;8.63;5.60;;;23.00;99.90;;;;;;5033357;28;20038;-48
2023/06/18 07:07:13;;;;;;;8.85;5.07;;;22.70;99.90;;;;;;5015307;28;20072;-50
2023/06/18 07:09:38;;;;;;;8.35;5.25;;;22.40;99.90;;;;;;5033311;28;20030;-44
2023/06/18 07:12:04;;;;;;;7.45;5.05;;;22.40;99.90;;;;;;5033336;28;20037;-49
2023/06/18 07:14:30;;;;;;;7.95;5.10;;;22.30;99.90;;;;;;5032634;28;20025;-45
2023/06/18 07:16:57;;;;;;;10.35;5.15;;;22.40;99.90;;;;;;5033249;28;20032;-50
2023/06/18 07:19:23;;;;;;;10.35;5.55;;;22.30;99.90;;;;;;5032879;28;20028;-53
2023/06/18 07:21:50;;;;;;;8.43;5.40;;;22.10;99.90;;;;;;5033019;28;20030;-54
2023/06/18 07:24:16;;;;;;;8.18;4.93;;;22.10;99.90;;;;;;5032654;28;20037;-51
2023/06/18 07:26:42;;;;;;;8.82;4.95;;;22.20;99.90;;;;;;5032907;28;20037;-58
2023/06/18 07:29:08;;;;;;;8.10;5.28;;;22.10;99.90;;;;;;5033004;28;20026;-49
2023/06/18 07:31:33;;;;;;;7.35;5.03;;;22.10;99.90;;;;;;5015279;28;20025;-52
2023/06/18 07:33:59;;;;;;;7.85;5.28;;;21.90;99.90;;;;;;5032737;28;20113;-45
2023/06/18 07:36:24;;;;;;;8.18;4.80;;;21.80;99.90;;;;;;5032784;28;20389;-48
2023/06/18 07:38:50;;;;;;;8.15;5.38;;;21.80;99.90;;;;;;5032553;28;20104;-47
2023/06/18 07:41:16;;;;;;;8.98;5.40;;;21.60;99.90;;;;;;5032141;28;20041;-44
2023/06/18 07:43:42;;;;;;;10.02;5.90;;;21.60;99.90;;;;;;5032207;28;20029;-53
2023/06/18 07:46:08;;;;;;;8.20;5.47;;;21.50;99.90;;;;;;5032305;28;20037;-50
2023/06/18 07:48:34;;;;;;;14.32;6.15;;;21.60;99.90;;;;;;5032212;28;20495;-46
2023/06/18 07:50:59;;;;;;;9.77;5.60;;;21.90;99.90;;;;;;5032221;28;20388;-44
2023/06/18 07:53:25;;;;;;;10.60;6.05;;;22.20;99.90;;;;;;5032271;28;20018;-51
2023/06/18 07:55:51;;;;;;;10.10;6.25;;;22.50;99.90;;;;;;5032041;28;20029;-49
2023/06/18 07:58:16;;;;;;;9.65;5.75;;;22.50;99.90;;;;;;5031688;28;20435;-52
2023/06/18 08:00:42;;;;;;;8.95;5.65;;;22.80;99.90;;;;;;5032178;28;20025;-45
2023/06/18 08:03:08;;;;;;;9.57;5.38;;;23.00;99.90;;;;;;5031777;28;20341;-48
2023/06/18 08:05:33;;;;;;;8.18;5.45;;;23.30;99.90;;;;;;5024803;28;20041;-44
2023/06/18 08:07:59;;;;;;;16.35;6.47;;;23.60;99.90;;;;;;5022359;28;20026;-45
2023/06/18 08:10:25;;;;;;;11.68;6.40;;;24.30;99.90;;;;;;5016889;28;20455;-45
2023/06/18 08:12:50;;;;;;;6.93;5.00;;;24.70;99.90;;;;;;5019099;28;20021;-47
2023/06/18 08:15:16;;;;;;;7.20;5.20;;;25.30;99.90;;;;;;5014497;28;20038;-50
2023/06/18 08:17:42;;;;;;;9.85;6.25;;;25.50;99.90;;;;;;5016820;28;20028;-48
2023/06/18 08:20:08;;;;;;;9.00;5.82;;;25.60;99.90;;;;;;5017777;28;20539;-43
2023/06/18 08:22:33;;;;;;;10.75;6.55;;;26.30;99.90;;;;;;5017354;28;20038;-48
2023/06/18 08:24:59;;;;;;;11.52;5.60;;;26.70;99.90;;;;;;5019640;28;20123;-44
2023/06/18 08:27:24;;;;;;;9.30;5.45;;;26.80;99.90;;;;;;5020205;28;20029;-48
2023/06/18 08:29:50;;;;;;;8.13;5.30;;;27.20;99.90;;;;;;5028451;28;20025;-47
2023/06/18 08:32:16;;;;;;;7.70;5.65;;;27.30;99.90;;;;;;5003831;28;20022;-46
2023/06/18 08:34:45;;;;;;;7.55;5.40;;;27.60;99.90;;;;;;5021711;28;20488;-47
2023/06/18 08:37:11;;;;;;;7.90;5.10;;;27.60;99.90;;;;;;5004869;28;20094;-45
2023/06/18 08:39:38;;;;;;;14.57;6.40;;;27.40;99.90;;;;;;5026605;28;20029;-44
2023/06/18 08:42:05;;;;;;;9.30;5.63;;;27.10;99.90;;;;;;5012487;28;20607;-43
2023/06/18 08:44:33;;;;;;;9.52;5.90;;;26.90;99.90;;;;;;5027658;28;20057;-45
2023/06/18 08:47:01;;;;;;;8.43;5.70;;;27.30;99.90;;;;;;5028248;28;20428;-44
2023/06/18 08:49:27;;;;;;;9.57;6.15;;;27.70;99.90;;;;;;5031131;28;20044;-43
2023/06/18 08:52:20;;;;;;;10.80;5.78;;;28.00;99.90;;;;;;5028295;28;20025;-44
2023/06/18 08:54:55;;;;;;;10.75;5.45;;;28.10;99.90;;;;;;5027494;28;20188;-45
2023/06/18 08:57:45;;;;;;;9.73;6.53;;;28.40;99.90;;;;;;5025370;28;20125;-44
2023/06/18 09:00:11;;;;;;;9.23;6.38;;;28.30;99.90;;;;;;5023267;28;20034;-44
2023/06/18 09:02:38;;;;;;;10.40;6.63;;;28.30;99.90;;;;;;5001251;28;20056;-45
2023/06/18 09:05:04;;;;;;;11.63;6.63;;;28.10;99.90;;;;;;5014616;28;20701;-46
2023/06/18 09:07:30;;;;;;;10.07;6.40;;;28.00;99.90;;;;;;5017753;28;20465;-49
2023/06/18 09:09:56;;;;;;;9.55;6.47;;;27.80;99.90;;;;;;5015319;28;20029;-45
2023/06/18 09:12:23;;;;;;;8.43;6.15;;;27.60;99.90;;;;;;5020995;28;20385;-45
2023/06/18 09:14:48;;;;;;;9.73;6.57;;;27.70;99.90;;;;;;5024925;28;20025;-47
2023/06/18 09:17:15;;;;;;;10.35;6.65;;;27.90;99.90;;;;;;5020197;28;20022;-49
2023/06/18 09:19:41;;;;;;;10.98;6.57;;;28.50;99.90;;;;;;5027654;28;20104;-53
2023/06/18 09:22:18;;;;;;;7.68;5.95;;;28.70;99.90;;;;;;5028211;28;20446;-46
2023/06/18 09:24:44;;;;;;;9.27;6.20;;;28.70;99.90;;;;;;5026976;28;20127;-48
2023/06/18 09:27:10;;;;;;;8.27;5.57;;;29.30;99.90;;;;;;5028180;28;20028;-51
2023/06/18 09:29:41;;;;;;;9.52;6.55;;;29.40;99.90;;;;;;5007322;28;20022;-45
2023/06/18 09:32:11;;;;;;;12.50;6.40;;;29.40;99.90;;;;;;5022209;28;20022;-46
2023/06/18 09:34:38;;;;;;;10.85;6.00;;;29.50;99.90;;;;;;5012564;28;20053;-47
2023/06/18 09:37:05;;;;;;;7.78;5.88;;;29.50;99.90;;;;;;5012038;28;20477;-49
2023/06/18 09:39:35;;;;;;;8.55;5.90;;;29.40;99.90;;;;;;5012809;28;20042;-45
2023/06/18 09:42:09;;;;;;;8.32;4.97;;;29.40;99.90;;;;;;5024380;28;20366;-48
2023/06/18 09:44:35;;;;;;;7.97;5.72;;;29.90;99.90;;;;;;5019097;28;20045;-47
2023/06/18 09:47:03;;;;;;;10.50;5.72;;;30.10;99.90;;;;;;5029789;28;20017;-45
2023/06/18 09:49:29;;;;;;;8.87;6.53;;;30.10;99.90;;;;;;5030099;28;20036;-48
2023/06/18 09:51:55;;;;;;;9.63;6.22;;;30.10;99.90;;;;;;5030172;28;20032;-46
2023/06/18 09:54:21;;;;;;;8.70;5.65;;;30.30;99.90;;;;;;5029723;28;20033;-51
2023/06/18 09:57:00;;;;;;;7.55;5.68;;;30.70;99.90;;;;;;5020545;28;20026;-50
2023/06/18 09:59:27;;;;;;;8.90;5.45;;;30.80;99.90;;;;;;5013565;28;20087;-45
2023/06/18 10:01:53;;;;;;;8.70;6.30;;;30.70;99.90;;;;;;5013938;28;20497;-49
2023/06/18 10:04:18;;;;;;;7.57;5.07;;;30.60;99.90;;;;;;5016962;28;20034;-48
2023/06/18 10:06:51;;;;;;;8.23;5.82;;;30.20;99.90;;;;;;5014220;28;20064;-48
2023/06/18 10:09:19;;;;;;;7.10;5.70;;;30.20;99.90;;;;;;5017075;28;20022;-55
2023/06/18 10:11:48;;;;;;;7.30;5.80;;;30.10;99.90;;;;;;5016777;28;20021;-46
2023/06/18 10:14:16;;;;;;;7.50;5.15;;;30.00;99.90;;;;;;5020646;28;20037;-51
2023/06/18 10:16:48;;;;;;;8.52;5.30;;;29.90;99.90;;;;;;5018725;28;20045;-45
2023/06/18 10:19:23;;;;;;;14.57;5.63;;;29.80;99.90;;;;;;5019382;28;20034;-47
2023/06/18 10:22:00;;;;;;;8.63;4.63;;;29.50;99.90;;;;;;5017923;28;20032;-52
2023/06/18 10:24:34;;;;;;;7.50;4.72;;;29.40;99.90;;;;;;5020199;28;20033;-52
2023/06/18 10:27:02;;;;;;;6.93;4.80;;;29.50;99.90;;;;;;5027824;28;20021;-49
2023/06/18 10:29:29;;;;;;;6.72;4.20;;;29.60;99.90;;;;;;5018326;28;20125;-48
2023/06/18 10:31:55;;;;;;;5.35;3.72;;;29.60;99.90;;;;;;5017839;28;20018;-56
2023/06/18 10:34:22;;;;;;;5.40;3.85;;;29.20;99.90;;;;;;5017340;28;20026;-49
2023/06/18 10:36:48;;;;;;;11.75;4.10;;;29.10;99.90;;;;;;5019735;28;20049;-53
2023/06/18 10:39:15;;;;;;;5.10;3.50;;;29.30;99.90;;;;;;5027068;28;20037;-43
2023/06/18 10:41:45;;;;;;;9.48;6.60;;;29.80;99.90;;;;;;5031033;28;20029;-48
2023/06/18 10:44:11;;;;;;;9.85;7.20;;;30.20;99.90;;;;;;5028881;28;20038;-47
2023/06/18 10:46:36;;;;;;;9.75;6.00;;;30.20;99.90;;;;;;5023473;28;20025;-48
2023/06/18 10:49:16;;;;;;;7.85;6.03;;;30.50;99.90;;;;;;5024095;28;20068;-45
2023/06/18 10:51:51;;;;;;;9.32;6.13;;;30.60;99.90;;;;;;5023306;28;20060;-51
2023/06/18 10:54:43;;;;;;;6.93;5.13;;;30.40;99.90;;;;;;5020046;28;20396;-50
2023/06/18 10:57:11;;;;;;;7.90;5.97;;;29.70;99.90;;;;;;5030064;28;20063;-54
2023/06/18 10:59:42;;;;;;;7.05;4.60;;;29.60;99.90;;;;;;5032965;28;20497;-47
2023/06/18 11:02:08;;;;;;;8.85;4.40;;;29.70;99.90;;;;;;5032560;28;20038;-48
2023/06/18 11:04:35;;;;;;;6.07;4.32;;;29.50;99.90;;;;;;5027692;28;20115;-46
2023/06/18 11:07:17;;;;;;;5.63;3.53;;;29.70;99.90;;;;;;5026335;28;20108;-51
2023/06/18 11:09:57;;;;;;;5.82;3.67;;;29.50;99.90;;;;;;5027839;28;20032;-45
2023/06/18 11:12:29;;;;;;;4.88;2.97;;;29.40;99.90;;;;;;5028092;28;20033;-43
2023/06/18 11:15:17;;;;;;;4.13;2.67;;;29.00;99.90;;;;;;5015592;28;20057;-47
2023/06/18 11:18:02;;;;;;;4.60;2.90;;;28.80;99.90;;;;;;5022696;28;20389;-52
2023/06/18 11:20:46;;;;;;;4.95;3.10;;;28.40;99.90;;;;;;5017811;28;20259;-49
2023/06/18 11:23:12;;;;;;;5.68;3.53;;;27.90;99.90;;;;;;5022789;28;20021;-45
2023/06/18 11:25:37;;;;;;;5.15;3.30;;;27.30;99.90;;;;;;5023741;28;20599;-44
2023/06/18 11:28:04;;;;;;;5.63;3.00;;;26.80;99.90;;;;;;5027186;28;20013;-52
2023/06/18 11:30:36;;;;;;;5.20;2.92;;;26.30;99.90;;;;;;5016514;28;20040;-54
2023/06/18 11:33:02;;;;;;;5.47;2.90;;;25.70;99.90;;;;;;5029136;28;20055;-45
2023/06/18 11:35:30;;;;;;;4.85;2.90;;;25.40;99.90;;;;;;5023671;28;20076;-49
2023/06/18 11:37:56;;;;;;;5.97;3.30;;;25.10;99.90;;;;;;5020357;28;20026;-51
2023/06/18 11:40:22;;;;;;;5.57;3.15;;;24.80;99.90;;;;;;5026002;28;20033;-42
2023/06/18 11:42:52;;;;;;;6.97;4.15;;;24.60;99.90;;;;;;5023412;28;20124;-52
2023/06/18 11:45:19;;;;;;;6.32;3.88;;;24.30;99.90;;;;;;5018651;28;20084;-49
2023/06/18 11:47:49;;;;;;;6.70;4.00;;;24.00;99.90;;;;;;5027993;28;20022;-45
2023/06/18 11:50:16;;;;;;;6.45;3.90;;;23.70;99.90;;;;;;5028701;28;20459;-49
2023/06/18 11:52:43;;;;;;;6.28;3.50;;;23.50;99.90;;;;;;5029025;28;20024;-47
2023/06/18 11:55:09;;;;;;;9.63;3.85;;;23.20;99.90;;;;;;5005989;28;20117;-47
2023/06/18 11:57:34;;;;;;;6.60;3.78;;;22.90;99.90;;;;;;5024917;28;20128;-56
2023/06/18 12:00:00;;;;;;;6.35;3.80;;;22.80;99.90;;;;;;5019175;28;20044;-47
2023/06/18 12:02:27;;;;;;;5.97;3.92;;;22.80;99.90;;;;;;5020850;28;20025;-49
2023/06/18 12:05:00;;;;;;;5.88;3.65;;;22.70;99.90;;;;;;5030695;28;20488;-51
2023/06/18 12:07:26;;;;;;;5.18;3.50;;;22.60;99.90;;;;;;5026363;28;20022;-53
2023/06/18 12:09:53;;;;;;;7.80;3.63;;;22.50;99.90;;;;;;5028280;28;20040;-51
2023/06/18 12:12:34;;;;;;;7.82;3.95;;;22.40;99.90;;;;;;5022068;28;20200;-46
2023/06/18 12:15:25;;;;;;;7.97;4.35;;;22.10;99.90;;;;;;5031785;28;20116;-43
2023/06/18 12:17:57;;;;;;;8.30;4.53;;;22.00;99.90;;;;;;5018820;28;20037;-43
2023/06/18 12:20:25;;;;;;;9.27;4.55;;;21.80;99.90;;;;;;5022267;28;20022;-43
2023/06/18 12:22:52;;;;;;;8.87;4.50;;;21.80;99.90;;;;;;5012960;28;20029;-43
2023/06/18 12:25:21;;;;;;;7.70;4.93;;;21.70;99.90;;;;;;5016927;28;20287;-50
2023/06/18 12:27:49;;;;;;;8.20;4.40;;;21.60;99.90;;;;;;5021186;28;20121;-45
2023/06/18 12:30:15;;;;;;;8.13;4.65;;;21.60;99.90;;;;;;5027071;28;20056;-50
2023/06/18 12:32:40;;;;;;;9.27;4.72;;;21.50;99.90;;;;;;5015030;28;20068;-45
2023/06/18 12:35:24;;;;;;;9.38;5.40;;;21.60;99.90;;;;;;5027303;28;20090;-48
2023/06/18 12:37:50;;;;;;;10.63;5.82;;;21.40;99.90;;;;;;5030869;28;20057;-46
2023/06/18 12:40:21;;;;;;;9.60;5.82;;;21.50;99.90;;;;;;5031047;28;20060;-44
2023/06/18 12:42:48;;;;;;;9.90;5.70;;;21.40;99.90;;;;;;5030519;28;20449;-47
2023/06/18 12:45:14;;;;;;;11.32;5.75;;;21.50;99.90;;;;;;5030002;28;20037;-45
2023/06/18 12:47:42;;;;;;;11.23;6.07;;;21.50;99.90;;;;;;5030314;28;20106;-43